This is the latest recevied weather packets stored in our database for station/object KQ7A. If no packets are shown the sender has not sent any weather packets the latest 10 day(s).
| Time | Temp. | Humidity | Pressure | Rain* | Wind** | Luminosity | Snow |
|---|---|---|---|---|---|---|---|
| 1778084404 | 15° C | 67% | 1022.4 hPa | 0 mm | - | 589 W/m² | - |
| 1778084101 | 15.56° C | 64% | 1022.2 hPa | 0 mm | - | 575 W/m² | - |
| 1778083798 | 15° C | 65% | 1022.2 hPa | 0 mm | - | 554 W/m² | - |
| 1778083496 | 15° C | 64% | 1022.3 hPa | 0 mm | - | 537 W/m² | - |
| 1778083193 | 15° C | 67% | 1022.4 hPa | 0 mm | - | 487 W/m² | - |
| 1778082891 | 14.44° C | 67% | 1022.4 hPa | 0 mm | - | 451 W/m² | - |
| 1778081783 | 12.78° C | 70% | 1022.3 hPa | 0 mm | - | 351 W/m² | - |
| 1778081480 | 12.78° C | 71% | 1022.3 hPa | 0 mm | - | 321 W/m² | - |
| 1778081177 | 12.78° C | 69% | 1022.3 hPa | 0 mm | - | 294 W/m² | - |
| 1778080875 | 12.78° C | 73% | 1022.2 hPa | 0 mm | - | 292 W/m² | - |
| 1778080573 | 12.78° C | 72% | 1022.2 hPa | 0 mm | - | 282 W/m² | - |
| 1778080270 | 12.78° C | 71% | 1022.4 hPa | 0 mm | - | 263 W/m² | - |
| 1778079967 | 12.78° C | 71% | 1022 hPa | 0 mm | - | 243 W/m² | - |
| 1778079663 | 12.22° C | 72% | 1022.1 hPa | 0 mm | - | 217 W/m² | - |
| 1778079360 | 12.22° C | 71% | 1022.2 hPa | 0 mm | - | 220 W/m² | - |
| 1778079058 | 11.67° C | 73% | 1022.1 hPa | 0 mm | - | 211 W/m² | - |
| 1778078754 | 11.11° C | 74% | 1022.2 hPa | 0 mm | - | 187 W/m² | - |
| 1778078451 | 11.11° C | 74% | 1022.1 hPa | 0 mm | - | 133 W/m² | - |
| 1778078149 | 11.67° C | 73% | 1022 hPa | 0 mm | - | 104 W/m² | - |
| 1778077847 | 10.56° C | 77% | 1022 hPa | 0 mm | - | 98 W/m² | - |
| 1778077544 | 10.56° C | 76% | 1022.1 hPa | 0 mm | - | 108 W/m² | - |
| 1778077243 | 10.56° C | 76% | 1022 hPa | 0 mm | - | 75 W/m² | - |
| 1778076940 | 10° C | 78% | 1021.9 hPa | 0 mm | - | 62 W/m² | - |
| 1778076638 | 9.44° C | 82% | 1021.8 hPa | 0 mm | - | 55 W/m² | - |
| 1778076335 | 7.78° C | 90% | 1021.6 hPa | 0 mm | - | 50 W/m² | - |
* Rain latest hour (hover to see other rain measurements)
** Current wind speed in m/s (hover to see current wind gust speed)